sensor_id;sensor_type;location;lat;lon;timestamp;pressure;altitude;pressure_sealevel;temperature;humidity
81608;BME280;71022;48.122;11.576;2023-12-28T00:01:24;95799.53;;;5.65;50.00
81608;BME280;71022;48.122;11.576;2023-12-28T00:03:51;95799.03;;;5.63;50.66
81608;BME280;71022;48.122;11.576;2023-12-28T00:06:19;95802.25;;;5.65;50.39
81608;BME280;71022;48.122;11.576;2023-12-28T00:08:46;95807.56;;;5.70;51.21
81608;BME280;71022;48.122;11.576;2023-12-28T00:11:26;95812.69;;;5.80;50.48
81608;BME280;71022;48.122;11.576;2023-12-28T00:13:54;95806.78;;;5.78;50.00
81608;BME280;71022;48.122;11.576;2023-12-28T00:16:21;95809.78;;;5.68;50.57
81608;BME280;71022;48.122;11.576;2023-12-28T00:18:48;95806.44;;;5.71;50.56
81608;BME280;71022;48.122;11.576;2023-12-28T00:21:16;95799.69;;;5.69;49.84
81608;BME280;71022;48.122;11.576;2023-12-28T00:23:45;95798.44;;;5.75;50.16
81608;BME280;71022;48.122;11.576;2023-12-28T00:26:12;95798.41;;;5.66;50.57
81608;BME280;71022;48.122;11.576;2023-12-28T00:28:40;95800.78;;;5.59;51.40
81608;BME280;71022;48.122;11.576;2023-12-28T00:31:09;95796.31;;;5.63;51.20
81608;BME280;71022;48.122;11.576;2023-12-28T00:33:36;95784.50;;;5.76;51.17
81608;BME280;71022;48.122;11.576;2023-12-28T00:36:04;95784.16;;;5.69;51.57
81608;BME280;71022;48.122;11.576;2023-12-28T00:38:32;95786.41;;;5.67;51.51
81608;BME280;71022;48.122;11.576;2023-12-28T00:40:59;95775.00;;;5.65;52.09
81608;BME280;71022;48.122;11.576;2023-12-28T00:43:27;95779.00;;;5.59;51.21
81608;BME280;71022;48.122;11.576;2023-12-28T00:45:54;95780.59;;;5.60;52.37
81608;BME280;71022;48.122;11.576;2023-12-28T00:48:21;95784.44;;;5.59;51.35
81608;BME280;71022;48.122;11.576;2023-12-28T00:50:49;95786.88;;;5.61;50.76
81608;BME280;71022;48.122;11.576;2023-12-28T00:53:16;95796.47;;;5.58;51.80
81608;BME280;71022;48.122;11.576;2023-12-28T00:55:44;95803.03;;;5.57;52.38
81608;BME280;71022;48.122;11.576;2023-12-28T00:58:11;95805.91;;;5.52;52.56
81608;BME280;71022;48.122;11.576;2023-12-28T01:00:38;95797.25;;;5.50;52.75
81608;BME280;71022;48.122;11.576;2023-12-28T01:03:07;95804.13;;;5.47;52.90
81608;BME280;71022;48.122;11.576;2023-12-28T01:05:34;95801.19;;;5.35;53.17
81608;BME280;71022;48.122;11.576;2023-12-28T01:08:03;95785.66;;;5.36;53.50
81608;BME280;71022;48.122;11.576;2023-12-28T01:10:33;95806.13;;;5.25;53.60
81608;BME280;71022;48.122;11.576;2023-12-28T01:13:01;95804.53;;;5.24;54.32
81608;BME280;71022;48.122;11.576;2023-12-28T01:15:28;95821.53;;;5.38;54.04
81608;BME280;71022;48.122;11.576;2023-12-28T01:17:56;95818.50;;;5.31;54.33
81608;BME280;71022;48.122;11.576;2023-12-28T01:20:24;95826.34;;;5.32;53.79
81608;BME280;71022;48.122;11.576;2023-12-28T01:22:51;95830.75;;;5.20;53.86
81608;BME280;71022;48.122;11.576;2023-12-28T01:25:18;95836.84;;;5.17;54.74
81608;BME280;71022;48.122;11.576;2023-12-28T01:27:46;95833.63;;;5.15;54.64
81608;BME280;71022;48.122;11.576;2023-12-28T01:30:13;95833.78;;;5.10;54.76
81608;BME280;71022;48.122;11.576;2023-12-28T01:32:42;95840.66;;;5.07;55.41
81608;BME280;71022;48.122;11.576;2023-12-28T01:35:09;95844.19;;;5.08;53.87
81608;BME280;71022;48.122;11.576;2023-12-28T01:37:36;95848.63;;;5.03;55.09
81608;BME280;71022;48.122;11.576;2023-12-28T01:40:04;95850.06;;;5.01;55.84
81608;BME280;71022;48.122;11.576;2023-12-28T01:42:32;95847.09;;;4.89;55.66
81608;BME280;71022;48.122;11.576;2023-12-28T01:44:59;95856.19;;;4.84;55.31
81608;BME280;71022;48.122;11.576;2023-12-28T01:47:27;95855.66;;;4.74;56.47
81608;BME280;71022;48.122;11.576;2023-12-28T01:49:58;95854.97;;;4.68;56.43
81608;BME280;71022;48.122;11.576;2023-12-28T01:52:27;95847.63;;;4.69;56.53
81608;BME280;71022;48.122;11.576;2023-12-28T01:54:55;95850.03;;;4.70;56.80
81608;BME280;71022;48.122;11.576;2023-12-28T01:57:23;95853.53;;;4.71;57.12
81608;BME280;71022;48.122;11.576;2023-12-28T01:59:52;95846.44;;;4.83;56.73
81608;BME280;71022;48.122;11.576;2023-12-28T02:02:22;95852.13;;;4.73;56.86
81608;BME280;71022;48.122;11.576;2023-12-28T02:04:49;95843.22;;;4.59;56.89
81608;BME280;71022;48.122;11.576;2023-12-28T02:07:20;95835.56;;;4.61;57.02
81608;BME280;71022;48.122;11.576;2023-12-28T02:09:50;95841.38;;;4.68;56.33
81608;BME280;71022;48.122;11.576;2023-12-28T02:12:17;95843.34;;;4.76;56.45
81608;BME280;71022;48.122;11.576;2023-12-28T02:14:45;95835.94;;;4.68;57.51
81608;BME280;71022;48.122;11.576;2023-12-28T02:17:33;95840.38;;;4.64;56.45
81608;BME280;71022;48.122;11.576;2023-12-28T02:20:04;95840.84;;;4.66;57.45
81608;BME280;71022;48.122;11.576;2023-12-28T02:22:34;95841.38;;;4.68;57.49
81608;BME280;71022;48.122;11.576;2023-12-28T02:25:11;95832.59;;;4.71;57.74
81608;BME280;71022;48.122;11.576;2023-12-28T02:27:41;95831.72;;;4.62;57.30
81608;BME280;71022;48.122;11.576;2023-12-28T02:30:10;95837.03;;;4.45;57.79
81608;BME280;71022;48.122;11.576;2023-12-28T02:32:54;95843.94;;;4.29;57.57
81608;BME280;71022;48.122;11.576;2023-12-28T02:35:31;95845.94;;;4.37;56.98
81608;BME280;71022;48.122;11.576;2023-12-28T02:38:09;95842.38;;;4.50;57.23
81608;BME280;71022;48.122;11.576;2023-12-28T02:40:38;95840.13;;;4.52;56.98
81608;BME280;71022;48.122;11.576;2023-12-28T02:43:06;95841.06;;;4.47;56.87
81608;BME280;71022;48.122;11.576;2023-12-28T02:45:34;95835.44;;;4.44;57.93
81608;BME280;71022;48.122;11.576;2023-12-28T02:48:02;95839.44;;;4.46;57.90
81608;BME280;71022;48.122;11.576;2023-12-28T02:50:32;95842.47;;;4.45;57.48
81608;BME280;71022;48.122;11.576;2023-12-28T02:53:01;95847.91;;;4.45;57.84
81608;BME280;71022;48.122;11.576;2023-12-28T02:55:28;95836.94;;;4.50;58.01
81608;BME280;71022;48.122;11.576;2023-12-28T02:57:56;95843.22;;;4.59;56.49
81608;BME280;71022;48.122;11.576;2023-12-28T03:00:28;95838.75;;;4.63;55.88
81608;BME280;71022;48.122;11.576;2023-12-28T03:02:56;95835.84;;;4.82;55.10
81608;BME280;71022;48.122;11.576;2023-12-28T03:05:24;95837.66;;;4.86;53.33
81608;BME280;71022;48.122;11.576;2023-12-28T03:07:52;95838.13;;;4.88;52.99
81608;BME280;71022;48.122;11.576;2023-12-28T03:10:21;95836.69;;;4.91;53.41
81608;BME280;71022;48.122;11.576;2023-12-28T03:12:48;95838.63;;;4.90;53.29
81608;BME280;71022;48.122;11.576;2023-12-28T03:15:17;95842.16;;;4.91;53.75
81608;BME280;71022;48.122;11.576;2023-12-28T03:17:45;95837.88;;;4.98;53.62
81608;BME280;71022;48.122;11.576;2023-12-28T03:20:12;95842.56;;;5.07;53.23
81608;BME280;71022;48.122;11.576;2023-12-28T03:22:39;95837.59;;;5.09;53.31
81608;BME280;71022;48.122;11.576;2023-12-28T03:25:08;95835.38;;;5.11;53.65
81608;BME280;71022;48.122;11.576;2023-12-28T03:27:35;95842.75;;;5.10;53.19
81608;BME280;71022;48.122;11.576;2023-12-28T03:30:03;95836.13;;;5.02;52.45
81608;BME280;71022;48.122;11.576;2023-12-28T03:32:31;95833.53;;;4.97;53.11
81608;BME280;71022;48.122;11.576;2023-12-28T03:34:58;95836.63;;;5.05;54.08
81608;BME280;71022;48.122;11.576;2023-12-28T03:37:26;95837.56;;;5.00;54.98
81608;BME280;71022;48.122;11.576;2023-12-28T03:39:53;95835.16;;;4.98;54.89
81608;BME280;71022;48.122;11.576;2023-12-28T03:42:21;95831.50;;;5.03;53.87
81608;BME280;71022;48.122;11.576;2023-12-28T03:44:49;95836.75;;;4.99;53.78
81608;BME280;71022;48.122;11.576;2023-12-28T03:47:16;95832.16;;;5.09;54.19
81608;BME280;71022;48.122;11.576;2023-12-28T03:49:43;95830.06;;;5.06;52.67
81608;BME280;71022;48.122;11.576;2023-12-28T03:52:12;95831.25;;;4.91;52.31
81608;BME280;71022;48.122;11.576;2023-12-28T03:54:40;95835.91;;;4.90;52.12
81608;BME280;71022;48.122;11.576;2023-12-28T03:57:07;95844.09;;;4.99;51.50
81608;BME280;71022;48.122;11.576;2023-12-28T03:59:34;95826.66;;;5.00;51.23
81608;BME280;71022;48.122;11.576;2023-12-28T04:02:02;95833.59;;;5.06;50.92
81608;BME280;71022;48.122;11.576;2023-12-28T04:04:29;95835.03;;;5.03;50.82
81608;BME280;71022;48.122;11.576;2023-12-28T04:06:56;95847.28;;;4.92;50.96
81608;BME280;71022;48.122;11.576;2023-12-28T04:09:24;95838.19;;;4.97;51.43
81608;BME280;71022;48.122;11.576;2023-12-28T04:11:52;95861.56;;;4.98;51.84
81608;BME280;71022;48.122;11.576;2023-12-28T05:08:47;95867.28;;;5.19;51.12
81608;BME280;71022;48.122;11.576;2023-12-28T05:12:50;95868.88;;;5.20;50.21
81608;BME280;71022;48.122;11.576;2023-12-28T05:16:09;95862.31;;;5.21;49.72
81608;BME280;71022;48.122;11.576;2023-12-28T05:26:33;95876.28;;;5.28;50.89
81608;BME280;71022;48.122;11.576;2023-12-28T05:29:41;95876.75;;;5.21;50.37
81608;BME280;71022;48.122;11.576;2023-12-28T05:33:14;95885.72;;;5.22;51.12
81608;BME280;71022;48.122;11.576;2023-12-28T05:36:47;95882.63;;;5.15;51.12
81608;BME280;71022;48.122;11.576;2023-12-28T05:39:50;95881.03;;;5.14;50.83
81608;BME280;71022;48.122;11.576;2023-12-28T05:42:43;95883.56;;;5.10;50.48
81608;BME280;71022;48.122;11.576;2023-12-28T05:45:22;95879.28;;;5.18;50.31
81608;BME280;71022;48.122;11.576;2023-12-28T05:48:29;95884.72;;;5.18;49.79
81608;BME280;71022;48.122;11.576;2023-12-28T05:51:43;95882.28;;;5.08;50.02
81608;BME280;71022;48.122;11.576;2023-12-28T05:55:20;95878.41;;;5.09;50.30
81608;BME280;71022;48.122;11.576;2023-12-28T05:59:09;95892.53;;;5.11;51.49
81608;BME280;71022;48.122;11.576;2023-12-28T06:02:57;95898.72;;;5.02;51.35
81608;BME280;71022;48.122;11.576;2023-12-28T06:11:02;95899.53;;;4.81;52.47
81608;BME280;71022;48.122;11.576;2023-12-28T06:14:37;95894.41;;;4.79;52.60
81608;BME280;71022;48.122;11.576;2023-12-28T06:18:04;95894.28;;;4.84;52.48
81608;BME280;71022;48.122;11.576;2023-12-28T06:28:24;95889.84;;;4.88;53.42
81608;BME280;71022;48.122;11.576;2023-12-28T06:32:07;95896.50;;;4.82;52.51
81608;BME280;71022;48.122;11.576;2023-12-28T06:35:44;95905.34;;;4.88;53.50
81608;BME280;71022;48.122;11.576;2023-12-28T06:39:55;95893.47;;;4.84;52.75
81608;BME280;71022;48.122;11.576;2023-12-28T06:43:24;95897.25;;;4.74;53.98
81608;BME280;71022;48.122;11.576;2023-12-28T06:47:02;95896.50;;;4.60;53.62
81608;BME280;71022;48.122;11.576;2023-12-28T06:50:50;95881.84;;;4.47;53.39
81608;BME280;71022;48.122;11.576;2023-12-28T06:54:00;95886.75;;;4.59;52.79
81608;BME280;71022;48.122;11.576;2023-12-28T06:57:27;95879.06;;;4.61;52.10
81608;BME280;71022;48.122;11.576;2023-12-28T07:05:23;95898.97;;;4.70;51.47
81608;BME280;71022;48.122;11.576;2023-12-28T07:13:31;95882.41;;;4.80;50.47
81608;BME280;71022;48.122;11.576;2023-12-28T07:23:40;95877.34;;;4.87;51.11
81608;BME280;71022;48.122;11.576;2023-12-28T07:27:27;95868.31;;;4.78;51.10
81608;BME280;71022;48.122;11.576;2023-12-28T07:31:06;95875.91;;;4.90;52.23
81608;BME280;71022;48.122;11.576;2023-12-28T07:33:48;95873.88;;;4.95;52.98
81608;BME280;71022;48.122;11.576;2023-12-28T07:37:31;95890.03;;;4.92;52.48
81608;BME280;71022;48.122;11.576;2023-12-28T07:40:58;95882.19;;;4.99;53.10
81608;BME280;71022;48.122;11.576;2023-12-28T07:44:01;95880.28;;;4.99;53.87
81608;BME280;71022;48.122;11.576;2023-12-28T07:47:15;95891.78;;;4.96;53.99
81608;BME280;71022;48.122;11.576;2023-12-28T07:58:14;95899.03;;;5.01;55.24
81608;BME280;71022;48.122;11.576;2023-12-28T08:01:26;95897.63;;;5.03;54.54
81608;BME280;71022;48.122;11.576;2023-12-28T08:15:58;95912.25;;;5.47;52.56
81608;BME280;71022;48.122;11.576;2023-12-28T08:19:22;95913.31;;;5.68;50.95
81608;BME280;71022;48.122;11.576;2023-12-28T08:22:24;95913.03;;;5.78;50.82
81608;BME280;71022;48.122;11.576;2023-12-28T08:25:16;95907.13;;;5.85;50.22
81608;BME280;71022;48.122;11.576;2023-12-28T08:28:20;95921.94;;;5.92;48.97
81608;BME280;71022;48.122;11.576;2023-12-28T08:31:13;95916.69;;;6.04;48.68
81608;BME280;71022;48.122;11.576;2023-12-28T08:34:24;95914.00;;;6.22;47.63
81608;BME280;71022;48.122;11.576;2023-12-28T08:37:02;95925.75;;;6.48;47.09
81608;BME280;71022;48.122;11.576;2023-12-28T08:40:04;95927.38;;;7.72;44.88
81608;BME280;71022;48.122;11.576;2023-12-28T08:59:35;95918.84;;;12.32;32.92
81608;BME280;71022;48.122;11.576;2023-12-28T09:02:04;95914.47;;;12.31;33.06
81608;BME280;71022;48.122;11.576;2023-12-28T09:04:41;95911.41;;;12.67;32.66
81608;BME280;71022;48.122;11.576;2023-12-28T09:07:16;95916.03;;;12.63;31.99
81608;BME280;71022;48.122;11.576;2023-12-28T09:09:58;95935.88;;;12.53;32.03
81608;BME280;71022;48.122;11.576;2023-12-28T09:12:34;95925.25;;;12.20;32.75
81608;BME280;71022;48.122;11.576;2023-12-28T09:15:04;95930.03;;;12.08;33.05
81608;BME280;71022;48.122;11.576;2023-12-28T09:17:34;95917.88;;;12.09;33.45
81608;BME280;71022;48.122;11.576;2023-12-28T09:20:11;95923.38;;;12.09;32.98
81608;BME280;71022;48.122;11.576;2023-12-28T09:22:48;95916.00;;;12.13;32.79
81608;BME280;71022;48.122;11.576;2023-12-28T09:25:31;95911.28;;;11.98;33.58
81608;BME280;71022;48.122;11.576;2023-12-28T09:28:07;95919.81;;;11.93;33.51
81608;BME280;71022;48.122;11.576;2023-12-28T09:30:47;95917.13;;;11.81;34.03
81608;BME280;71022;48.122;11.576;2023-12-28T09:33:15;95918.97;;;11.33;34.23
81608;BME280;71022;48.122;11.576;2023-12-28T09:35:43;95918.84;;;11.30;34.65
81608;BME280;71022;48.122;11.576;2023-12-28T09:38:15;95912.44;;;10.98;35.50
81608;BME280;71022;48.122;11.576;2023-12-28T09:40:45;95911.25;;;11.11;35.22
81608;BME280;71022;48.122;11.576;2023-12-28T09:43:30;95903.94;;;11.03;34.77
81608;BME280;71022;48.122;11.576;2023-12-28T09:46:07;95888.88;;;10.85;35.21
81608;BME280;71022;48.122;11.576;2023-12-28T09:48:38;95896.72;;;10.71;35.41
81608;BME280;71022;48.122;11.576;2023-12-28T09:51:10;95895.38;;;10.52;36.40
81608;BME280;71022;48.122;11.576;2023-12-28T09:53:43;95896.06;;;10.49;35.79
81608;BME280;71022;48.122;11.576;2023-12-28T09:56:15;95890.81;;;10.32;35.99
81608;BME280;71022;48.122;11.576;2023-12-28T09:58:44;95896.19;;;10.29;35.88
81608;BME280;71022;48.122;11.576;2023-12-28T10:01:14;95894.38;;;10.21;36.77
81608;BME280;71022;48.122;11.576;2023-12-28T10:03:45;95895.41;;;10.28;36.42
81608;BME280;71022;48.122;11.576;2023-12-28T10:06:17;95886.25;;;10.12;37.01
81608;BME280;71022;48.122;11.576;2023-12-28T10:08:49;95894.50;;;10.24;36.41
81608;BME280;71022;48.122;11.576;2023-12-28T10:11:19;95900.00;;;10.24;36.61
81608;BME280;71022;48.122;11.576;2023-12-28T10:13:53;95901.56;;;10.25;37.07
81608;BME280;71022;48.122;11.576;2023-12-28T10:16:32;95895.41;;;10.16;37.39
81608;BME280;71022;48.122;11.576;2023-12-28T10:19:00;95897.13;;;10.33;37.20
81608;BME280;71022;48.122;11.576;2023-12-28T10:21:31;95889.22;;;10.31;37.25
81608;BME280;71022;48.122;11.576;2023-12-28T10:24:06;95899.50;;;10.34;37.55
81608;BME280;71022;48.122;11.576;2023-12-28T10:26:33;95889.91;;;10.28;37.55
81608;BME280;71022;48.122;11.576;2023-12-28T10:29:06;95896.09;;;10.25;37.68
81608;BME280;71022;48.122;11.576;2023-12-28T10:31:34;95895.88;;;10.30;36.84
81608;BME280;71022;48.122;11.576;2023-12-28T10:34:07;95887.59;;;10.42;37.49
81608;BME280;71022;48.122;11.576;2023-12-28T10:36:40;95886.88;;;10.57;36.70
81608;BME280;71022;48.122;11.576;2023-12-28T10:39:11;95887.13;;;10.65;35.53
81608;BME280;71022;48.122;11.576;2023-12-28T10:41:49;95875.38;;;10.40;35.91
81608;BME280;71022;48.122;11.576;2023-12-28T10:44:23;95868.88;;;10.32;35.91
81608;BME280;71022;48.122;11.576;2023-12-28T10:47:07;95871.63;;;10.32;36.51
81608;BME280;71022;48.122;11.576;2023-12-28T10:49:56;95870.94;;;10.35;36.66
81608;BME280;71022;48.122;11.576;2023-12-28T10:52:37;95872.97;;;10.38;37.13
81608;BME280;71022;48.122;11.576;2023-12-28T11:50:25;95829.81;;;10.63;37.00
81608;BME280;71022;48.122;11.576;2023-12-28T11:54:15;95829.91;;;11.22;49.19
81608;BME280;71022;48.122;11.576;2023-12-28T12:01:37;95812.63;;;12.50;38.82
81608;BME280;71022;48.122;11.576;2023-12-28T12:04:06;95829.19;;;12.89;37.47
81608;BME280;71022;48.122;11.576;2023-12-28T12:06:34;95820.63;;;13.32;36.95
81608;BME280;71022;48.122;11.576;2023-12-28T12:09:02;95815.97;;;13.36;35.96
81608;BME280;71022;48.122;11.576;2023-12-28T12:11:29;95823.03;;;13.56;35.30
81608;BME280;71022;48.122;11.576;2023-12-28T12:13:57;95824.34;;;13.62;34.76
81608;BME280;71022;48.122;11.576;2023-12-28T12:16:24;95817.34;;;13.68;34.27
81608;BME280;71022;48.122;11.576;2023-12-28T12:18:52;95818.84;;;13.85;34.47
81608;BME280;71022;48.122;11.576;2023-12-28T12:21:19;95812.09;;;13.82;33.81
81608;BME280;71022;48.122;11.576;2023-12-28T12:23:47;95811.34;;;13.85;34.64
81608;BME280;71022;48.122;11.576;2023-12-28T12:26:17;95802.00;;;13.94;34.18
81608;BME280;71022;48.122;11.576;2023-12-28T12:28:45;95806.66;;;13.90;33.99
81608;BME280;71022;48.122;11.576;2023-12-28T12:31:12;95801.78;;;13.79;33.55
81608;BME280;71022;48.122;11.576;2023-12-28T12:33:40;95798.72;;;13.84;33.91
81608;BME280;71022;48.122;11.576;2023-12-28T12:36:08;95798.56;;;13.77;34.59
81608;BME280;71022;48.122;11.576;2023-12-28T12:38:35;95799.69;;;13.73;34.02
81608;BME280;71022;48.122;11.576;2023-12-28T12:41:02;95793.00;;;13.97;34.09
